Observation data for Roaring Springs on 10/13/2019      Previous  Date       Current Mesonet Observations  Soil Data  Daily Summary Page  Observations in Plain Language
KRRS 130500Z 20009KT 08/00 A2996 RMK A01 T00770000  RH  059%=      5-min Rain = 0
KRRS 130505Z 20009KT 08/00 A2996 RMK A01 T007600-0  RH  059%=      5-min Rain = 0
KRRS 130510Z 19009KT 08/00 A2996 RMK A01 T007700-0  RH  059%=      5-min Rain = 0
KRRS 130515Z 19008KT 08/00 A2996 RMK A01 T00770000  RH  059%=      5-min Rain = 0
KRRS 130520Z 20009KT 08/M00 A2996 RMK A01 T00791001  RH  058%=      5-min Rain = 0
KRRS 130525Z 21009KT 08/M00 A2996 RMK A01 T00841001  RH  056%=      5-min Rain = 0
KRRS 130530Z 21010KT 09/00 A2995 RMK A01 T008800-0  RH  054%=      5-min Rain = 0
KRRS 130535Z 21010KT 09/00 A2995 RMK A01 T00880003  RH  056%=      5-min Rain = 0
KRRS 130540Z 21011KT 09/00 A2995 RMK A01 T00870004  RH  057%=      5-min Rain = 0
KRRS 130545Z 21012KT 09/01 A2995 RMK A01 T00910005  RH  056%=      5-min Rain = 0
KRRS 130550Z 21011KT 10/01 A2995 RMK A01 T00950005  RH  054%=      5-min Rain = 0
KRRS 130555Z 21010KT 10/01 A2995 RMK A01 T00980006  RH  053%=      5-min Rain = 0
KRRS 130600Z 22008KT 10/01 A2995 RMK A01 T01030005  RH  051%=      5-min Rain = 0
KRRS 130605Z 22008KT 11/01 A2995 RMK A01 T01080005  RH  050%=      5-min Rain = 0
KRRS 130610Z 22009KT 11/01 A2995 RMK A01 T01090005  RH  049%=      5-min Rain = 0
KRRS 130615Z 22010KT 11/01 A2995 RMK A01 T01090005  RH  049%=      5-min Rain = 0
KRRS 130620Z 22010KT 11/00 A2995 RMK A01 T01110003  RH  048%=      5-min Rain = 0
KRRS 130625Z 22011KT 12/00 A2995 RMK A01 T01170003  RH  046%=      5-min Rain = 0
KRRS 130630Z 22010KT 12/00 A2995 RMK A01 T01180003  RH  046%=      5-min Rain = 0
KRRS 130635Z 22010KT 12/00 A2995 RMK A01 T01180003  RH  046%=      5-min Rain = 0
KRRS 130640Z 22010KT 12/00 A2995 RMK A01 T01170003  RH  046%=      5-min Rain = 0
KRRS 130645Z 22010KT 12/00 A2995 RMK A01 T01160003  RH  047%=      5-min Rain = 0
KRRS 130650Z 22011KT 12/00 A2995 RMK A01 T01160003  RH  047%=      5-min Rain = 0
KRRS 130655Z 21010KT 11/00 A2995 RMK A01 T01140004  RH  047%=      5-min Rain = 0
KRRS 130700Z 21010KT 11/01 A2995 RMK A01 T01110006  RH  049%=      5-min Rain = 0
KRRS 130705Z 21010KT 11/01 A2995 RMK A01 T01070007  RH  050%=      5-min Rain = 0
KRRS 130710Z 21011KT 11/01 A2995 RMK A01 T01050008  RH  052%=      5-min Rain = 0
KRRS 130715Z 21010KT 10/01 A2995 RMK A01 T01030008  RH  052%=      5-min Rain = 0
KRRS 130720Z 21010KT 10/01 A2995 RMK A01 T01030008  RH  052%=      5-min Rain = 0
KRRS 130725Z 21009KT 11/01 A2995 RMK A01 T01060007  RH  051%=      5-min Rain = 0
KRRS 130730Z 21009KT 11/01 A2995 RMK A01 T01070008  RH  051%=      5-min Rain = 0
KRRS 130735Z 21009KT 11/01 A2995 RMK A01 T01070009  RH  051%=      5-min Rain = 0
KRRS 130740Z 20009KT 11/01 A2995 RMK A01 T01060010  RH  052%=      5-min Rain = 0
KRRS 130745Z 20009KT 11/01 A2995 RMK A01 T01070009  RH  051%=      5-min Rain = 0
KRRS 130750Z 19008KT 11/01 A2995 RMK A01 T01060010  RH  052%=      5-min Rain = 0
KRRS 130755Z 19006KT 11/01 A2995 RMK A01 T01050010  RH  052%=      5-min Rain = 0
KRRS 130800Z 19006KT 10/01 A2995 RMK A01 T01030011  RH  053%=      5-min Rain = 0
KRRS 130805Z 20007KT 10/01 A2995 RMK A01 T01030011  RH  053%=      5-min Rain = 0
KRRS 130810Z 21006KT 11/01 A2995 RMK A01 T01080012  RH  052%=      5-min Rain = 0
KRRS 130815Z 21006KT 10/01 A2995 RMK A01 T01030011  RH  054%=      5-min Rain = 0
KRRS 130820Z 17004KT 10/01 A2996 RMK A01 T00980012  RH  056%=      5-min Rain = 0
KRRS 130825Z 04005KT 09/01 A2996 RMK A01 T00920013  RH  058%=      5-min Rain = 0
KRRS 130830Z 02006KT 09/01 A2996 RMK A01 T00850012  RH  061%=      5-min Rain = 0
KRRS 130835Z 02002KT 08/01 A2996 RMK A01 T00840011  RH  061%=      5-min Rain = 0
KRRS 130840Z 23000KT 09/01 A2996 RMK A01 T00900009  RH  057%=      5-min Rain = 0
KRRS 130845Z 29002KT 09/01 A2996 RMK A01 T00940011  RH  057%=      5-min Rain = 0
KRRS 130850Z 01003KT 09/01 A2996 RMK A01 T00940011  RH  057%=      5-min Rain = 0
KRRS 130855Z 03004KT 09/01 A2996 RMK A01 T00880011  RH  059%=      5-min Rain = 0
KRRS 130900Z 07003KT 09/01 A2995 RMK A01 T00890008  RH  058%=      5-min Rain = 0
KRRS 130905Z 05002KT 09/01 A2995 RMK A01 T00920008  RH  057%=      5-min Rain = 0
KRRS 130910Z 03000KT 09/01 A2995 RMK A01 T00900010  RH  058%=      5-min Rain = 0
KRRS 130915Z 29000KT 09/01 A2995 RMK A01 T00870010  RH  059%=      5-min Rain = 0
KRRS 130920Z 24002KT 09/01 A2995 RMK A01 T00890008  RH  058%=      5-min Rain = 0
KRRS 130925Z 23004KT 09/01 A2995 RMK A01 T00940010  RH  056%=      5-min Rain = 0
KRRS 130930Z 22007KT 09/01 A2995 RMK A01 T00850014  RH  062%=      5-min Rain = 0
KRRS 130935Z 22008KT 08/02 A2994 RMK A01 T00790017  RH  066%=      5-min Rain = 0
KRRS 130940Z 22009KT 08/02 A2994 RMK A01 T00830019  RH  065%=      5-min Rain = 0
KRRS 130945Z 21007KT 09/02 A2994 RMK A01 T00890020  RH  063%=      5-min Rain = 0
KRRS 130950Z 21009KT 09/02 A2994 RMK A01 T00900021  RH  063%=      5-min Rain = 0
KRRS 130955Z 21010KT 09/02 A2994 RMK A01 T00900022  RH  063%=      5-min Rain = 0
KRRS 131000Z 21010KT 10/02 A2993 RMK A01 T00950022  RH  061%=      5-min Rain = 0
KRRS 131005Z 21009KT 09/02 A2993 RMK A01 T00940022  RH  061%=      5-min Rain = 0
KRRS 131010Z 20009KT 10/02 A2993 RMK A01 T00950022  RH  061%=      5-min Rain = 0
KRRS 131015Z 19010KT 10/02 A2993 RMK A01 T00990022  RH  060%=      5-min Rain = 0
KRRS 131020Z 19011KT 10/02 A2993 RMK A01 T00980022  RH  060%=      5-min Rain = 0
KRRS 131025Z 19011KT 10/02 A2993 RMK A01 T00950021  RH  061%=      5-min Rain = 0
KRRS 131030Z 19011KT 10/02 A2993 RMK A01 T00950020  RH  061%=      5-min Rain = 0
KRRS 131035Z 19007KT 10/02 A2993 RMK A01 T00970020  RH  060%=      5-min Rain = 0
KRRS 131040Z 20002KT 10/02 A2993 RMK A01 T00960020  RH  060%=      5-min Rain = 0
KRRS 131045Z 03001KT 09/02 A2993 RMK A01 T00920021  RH  062%=      5-min Rain = 0
KRRS 131050Z 03004KT 08/02 A2994 RMK A01 T00840021  RH  066%=      5-min Rain = 0
KRRS 131055Z 03004KT 08/02 A2994 RMK A01 T00810021  RH  067%=      5-min Rain = 0
KRRS 131100Z 02006KT 08/02 A2994 RMK A01 T00800021  RH  067%=      5-min Rain = 0
KRRS 131105Z 03004KT 08/02 A2994 RMK A01 T00790022  RH  068%=      5-min Rain = 0
KRRS 131110Z 04004KT 08/02 A2994 RMK A01 T00790021  RH  068%=      5-min Rain = 0
KRRS 131115Z 04003KT 08/02 A2994 RMK A01 T00770021  RH  069%=      5-min Rain = 0
KRRS 131120Z 06002KT 08/02 A2994 RMK A01 T00780021  RH  068%=      5-min Rain = 0
KRRS 131125Z 06003KT 08/02 A2994 RMK A01 T00800020  RH  067%=      5-min Rain = 0
KRRS 131130Z 08003KT 08/02 A2994 RMK A01 T00800020  RH  067%=      5-min Rain = 0
KRRS 131135Z 10003KT 08/02 A2994 RMK A01 T00830019  RH  065%=      5-min Rain = 0
KRRS 131140Z 11002KT 09/02 A2994 RMK A01 T00850019  RH  064%=      5-min Rain = 0
KRRS 131145Z 13003KT 09/02 A2994 RMK A01 T00860019  RH  064%=      5-min Rain = 0
KRRS 131150Z 15005KT 09/02 A2994 RMK A01 T00850020  RH  065%=      5-min Rain = 0
KRRS 131155Z 16006KT 09/02 A2994 RMK A01 T00870021  RH  064%=      5-min Rain = 0
KRRS 131200Z 17006KT 09/02 A2994 RMK A01 T00870021  RH  064%=      5-min Rain = 0
KRRS 131205Z 18005KT 08/02 A2994 RMK A01 T00810022  RH  068%=      5-min Rain = 0
KRRS 131210Z 18006KT 07/02 A2994 RMK A01 T00730022  RH  071%=      5-min Rain = 0
KRRS 131215Z 18005KT 07/02 A2994 RMK A01 T00680022  RH  074%=      5-min Rain = 0
KRRS 131220Z 18005KT 07/02 A2995 RMK A01 T00680021  RH  073%=      5-min Rain = 0
KRRS 131225Z 19005KT 07/02 A2995 RMK A01 T00690021  RH  072%=      5-min Rain = 0
KRRS 131230Z 18008KT 07/02 A2995 RMK A01 T00710022  RH  072%=      5-min Rain = 0
KRRS 131235Z 19008KT 07/03 A2995 RMK A01 T00720025  RH  073%=      5-min Rain = 0
KRRS 131240Z 19008KT 07/03 A2995 RMK A01 T00730026  RH  073%=      5-min Rain = 0
KRRS 131245Z 20009KT 07/03 A2995 RMK A01 T00680025  RH  075%=      5-min Rain = 0
KRRS 131250Z 19008KT 07/03 A2995 RMK A01 T00660025  RH  076%=      5-min Rain = 0
KRRS 131255Z 19007KT 07/03 A2995 RMK A01 T00720027  RH  074%=      5-min Rain = 0
KRRS 131300Z 20007KT 07/03 A2995 RMK A01 T00690026  RH  075%=      5-min Rain = 0
KRRS 131305Z 19008KT 07/03 A2995 RMK A01 T00660026  RH  077%=      5-min Rain = 0
KRRS 131310Z 19006KT 07/03 A2995 RMK A01 T00700027  RH  075%=      5-min Rain = 0
KRRS 131315Z 19007KT 08/03 A2995 RMK A01 T00750028  RH  074%=      5-min Rain = 0
KRRS 131320Z 19008KT 08/03 A2995 RMK A01 T00790029  RH  072%=      5-min Rain = 0
KRRS 131325Z 19009KT 08/03 A2995 RMK A01 T00810030  RH  071%=      5-min Rain = 0
KRRS 131330Z 19008KT 08/03 A2995 RMK A01 T00820031  RH  072%=      5-min Rain = 0
KRRS 131335Z 20008KT 09/03 A2995 RMK A01 T00860033  RH  071%=      5-min Rain = 0
KRRS 131340Z 20008KT 09/04 A2995 RMK A01 T00880036  RH  071%=      5-min Rain = 0
KRRS 131345Z 20005KT 09/04 A2996 RMK A01 T00920038  RH  070%=      5-min Rain = 0
KRRS 131350Z 20005KT 10/04 A2996 RMK A01 T00990039  RH  068%=      5-min Rain = 0
KRRS 131355Z 21007KT 10/04 A2996 RMK A01 T01040041  RH  066%=      5-min Rain = 0
KRRS 131400Z 20008KT 11/04 A2996 RMK A01 T01090041  RH  064%=      5-min Rain = 0
KRRS 131405Z 21008KT 12/04 A2996 RMK A01 T01150041  RH  062%=      5-min Rain = 0
KRRS 131410Z 21009KT 12/04 A2996 RMK A01 T01210040  RH  059%=      5-min Rain = 0
KRRS 131415Z 20007KT 13/04 A2996 RMK A01 T01290043  RH  057%=      5-min Rain = 0
KRRS 131420Z 20009KT 13/04 A2996 RMK A01 T01340042  RH  055%=      5-min Rain = 0
KRRS 131425Z 20010KT 14/04 A2996 RMK A01 T01380042  RH  053%=      5-min Rain = 0
KRRS 131430Z 21010KT 14/04 A2996 RMK A01 T01420042  RH  052%=      5-min Rain = 0
KRRS 131435Z 21009KT 14/04 A2996 RMK A01 T01440044  RH  052%=      5-min Rain = 0
KRRS 131440Z 21009KT 15/05 A2996 RMK A01 T01470046  RH  052%=      5-min Rain = 0
KRRS 131445Z 22008KT 15/05 A2996 RMK A01 T01540048  RH  050%=      5-min Rain = 0
KRRS 131450Z 23009KT 16/05 A2996 RMK A01 T01570048  RH  049%=      5-min Rain = 0
KRRS 131455Z 23009KT 16/05 A2996 RMK A01 T01620050  RH  048%=      5-min Rain = 0
KRRS 131500Z 22008KT 17/05 A2996 RMK A01 T01650051  RH  048%=      5-min Rain = 0
KRRS 131505Z 23006KT 17/05 A2996 RMK A01 T01700054  RH  047%=      5-min Rain = 0
KRRS 131510Z 23006KT 18/05 A2997 RMK A01 T01750054  RH  046%=      5-min Rain = 0
KRRS 131515Z 24005KT 18/06 A2997 RMK A01 T01810057  RH  045%=      5-min Rain = 0
KRRS 131520Z 23006KT 18/06 A2997 RMK A01 T01840055  RH  044%=      5-min Rain = 0
KRRS 131525Z 24007KT 19/06 A2997 RMK A01 T01890059  RH  043%=      5-min Rain = 0
KRRS 131530Z 24007KT 19/06 A2997 RMK A01 T01920057  RH  042%=      5-min Rain = 0
KRRS 131535Z 26007KT 20/06 A2997 RMK A01 T01970059  RH  041%=      5-min Rain = 0
KRRS 131540Z 27007KT 20/06 A2997 RMK A01 T01970056  RH  040%=      5-min Rain = 0
KRRS 131545Z 25006KT 20/06 A2997 RMK A01 T01980058  RH  041%=      5-min Rain = 0
KRRS 131550Z 25006KT 20/06 A2997 RMK A01 T02020061  RH  041%=      5-min Rain = 0
KRRS 131555Z 28007KT 21/06 A2997 RMK A01 T02050058  RH  039%=      5-min Rain = 0
KRRS 131600Z 27006KT 21/06 A2997 RMK A01 T02060061  RH  040%=      5-min Rain = 0
KRRS 131605Z 27005KT 21/06 A2997 RMK A01 T02060061  RH  040%=      5-min Rain = 0
KRRS 131610Z 28005KT 21/06 A2997 RMK A01 T02100063  RH  039%=      5-min Rain = 0
KRRS 131615Z 27004KT 22/07 A2997 RMK A01 T02150065  RH  039%=      5-min Rain = 0
KRRS 131620Z 21004KT 22/07 A2997 RMK A01 T02180066  RH  038%=      5-min Rain = 0
KRRS 131625Z 22003KT 22/07 A2997 RMK A01 T02230066  RH  037%=      5-min Rain = 0
KRRS 131630Z 23004KT 22/07 A2997 RMK A01 T02230066  RH  037%=      5-min Rain = 0
KRRS 131635Z 22004KT 23/07 A2997 RMK A01 T02250065  RH  037%=      5-min Rain = 0
KRRS 131640Z 21003KT 23/07 A2997 RMK A01 T02270066  RH  036%=      5-min Rain = 0
KRRS 131645Z 26004KT 23/07 A2997 RMK A01 T02310065  RH  035%=      5-min Rain = 0
KRRS 131650Z 27001KT 23/06 A2997 RMK A01 T02310063  RH  035%=      5-min Rain = 0
KRRS 131655Z 24004KT 23/06 A2997 RMK A01 T02330064  RH  035%=      5-min Rain = 0
KRRS 131700Z 24003KT 23/07 A2997 RMK A01 T02340066  RH  035%=      5-min Rain = 0
KRRS 131705Z 26003KT 24/06 A2997 RMK A01 T02350062  RH  034%=      5-min Rain = 0
KRRS 131710Z 28003KT 24/07 A2997 RMK A01 T02380069  RH  035%=      5-min Rain = 0
KRRS 131715Z 25003KT 24/06 A2997 RMK A01 T02380063  RH  033%=      5-min Rain = 0
KRRS 131720Z 21001KT 24/06 A2997 RMK A01 T02370062  RH  033%=      5-min Rain = 0
KRRS 131725Z 28001KT 24/07 A2997 RMK A01 T02410065  RH  033%=      5-min Rain = 0
KRRS 131730Z 20004KT 24/07 A2997 RMK A01 T02440068  RH  033%=      5-min Rain = 0
KRRS 131735Z 19004KT 25/07 A2996 RMK A01 T02470067  RH  032%=      5-min Rain = 0
KRRS 131740Z 15003KT 25/07 A2996 RMK A01 T02490065  RH  031%=      5-min Rain = 0
KRRS 131745Z 24004KT 25/07 A2996 RMK A01 T02520065  RH  031%=      5-min Rain = 0
KRRS 131750Z 28002KT 25/07 A2996 RMK A01 T02530068  RH  031%=      5-min Rain = 0
KRRS 131755Z 30002KT 26/07 A2996 RMK A01 T02570067  RH  030%=      5-min Rain = 0
KRRS 131800Z 20004KT 26/07 A2996 RMK A01 T02580065  RH  030%=      5-min Rain = 0
KRRS 131805Z 20002KT 26/06 A2996 RMK A01 T02570062  RH  029%=      5-min Rain = 0
KRRS 131810Z 24002KT 26/06 A2995 RMK A01 T02570062  RH  029%=      5-min Rain = 0
KRRS 131815Z 26003KT 26/06 A2995 RMK A01 T02570061  RH  029%=      5-min Rain = 0
KRRS 131820Z 28003KT 26/06 A2995 RMK A01 T02580062  RH  029%=      5-min Rain = 0
KRRS 131825Z 02001KT 26/06 A2995 RMK A01 T02590060  RH  029%=      5-min Rain = 0
KRRS 131830Z 06002KT 26/06 A2995 RMK A01 T02610064  RH  029%=      5-min Rain = 0
KRRS 131835Z 16002G7KT 26/06 A2995 RMK A01 T02640062  RH  028%=      5-min Rain = 0
KRRS 131840Z 14004KT 27/06 A2995 RMK A01 T02650061  RH  028%=      5-min Rain = 0
KRRS 131845Z 15003KT 27/06 A2994 RMK A01 T02670062  RH  028%=      5-min Rain = 0
KRRS 131850Z 15003G8KT 27/07 A2994 RMK A01 T02680065  RH  028%=      5-min Rain = 0
KRRS 131855Z 18005KT 27/07 A2994 RMK A01 T02710068  RH  028%=      5-min Rain = 0
KRRS 131900Z 15004KT 27/06 A2994 RMK A01 T02700062  RH  027%=      5-min Rain = 0
KRRS 131905Z 13004KT 27/07 A2993 RMK A01 T02720070  RH  028%=      5-min Rain = 0
KRRS 131910Z 06003KT 27/06 A2993 RMK A01 T02690063  RH  028%=      5-min Rain = 0
KRRS 131915Z 16004KT 27/07 A2993 RMK A01 T02710066  RH  028%=      5-min Rain = 0
KRRS 131920Z 20005G10KT 27/06 A2993 RMK A01 T02740059  RH  026%=      5-min Rain = 0
KRRS 131925Z 24003KT 28/05 A2992 RMK A01 T02770054  RH  025%=      5-min Rain = 0
KRRS 131930Z 22003KT 28/06 A2992 RMK A01 T02770057  RH  025%=      5-min Rain = 0
KRRS 131935Z 19004G9KT 28/06 A2992 RMK A01 T02780059  RH  025%=      5-min Rain = 0
KRRS 131940Z 17003KT 28/05 A2991 RMK A01 T02780053  RH  025%=      5-min Rain = 0
KRRS 131945Z 12006KT 28/06 A2991 RMK A01 T02800060  RH  025%=      5-min Rain = 0
KRRS 131950Z 14004KT 28/06 A2991 RMK A01 T02800059  RH  025%=      5-min Rain = 0
KRRS 131955Z 20004KT 28/06 A2991 RMK A01 T02800056  RH  025%=      5-min Rain = 0
KRRS 132000Z 19004G9KT 28/06 A299 RMK A01 T02820055  RH  024%=      5-min Rain = 0
KRRS 132005Z 22004G10KT 29/06 A299 RMK A01 T02850055  RH  024%=      5-min Rain = 0
KRRS 132010Z 21006G12KT 29/05 A299 RMK A01 T02860053  RH  023%=      5-min Rain = 0
KRRS 132015Z 21005G11KT 29/05 A2989 RMK A01 T02860051  RH  023%=      5-min Rain = 0
KRRS 132020Z 20005G12KT 29/06 A2989 RMK A01 T02890056  RH  023%=      5-min Rain = 0
KRRS 132025Z 20005G10KT 29/05 A2989 RMK A01 T02910053  RH  023%=      5-min Rain = 0
KRRS 132030Z 16004KT 29/05 A2989 RMK A01 T02940053  RH  022%=      5-min Rain = 0
KRRS 132035Z 18006KT 29/06 A2989 RMK A01 T02940055  RH  023%=      5-min Rain = 0
KRRS 132040Z 16005KT 30/05 A2989 RMK A01 T02970054  RH  022%=      5-min Rain = 0
KRRS 132045Z 18005G16KT 30/05 A2988 RMK A01 T02970050  RH  021%=      5-min Rain = 0
KRRS 132050Z 22011KT 30/05 A2988 RMK A01 T02990048  RH  021%=      5-min Rain = 0
KRRS 132055Z 19010KT 30/05 A2988 RMK A01 T03000047  RH  020%=      5-min Rain = 0
KRRS 132100Z 22012KT 30/04 A2988 RMK A01 T02990042  RH  020%=      5-min Rain = 0
KRRS 132105Z 23009G14KT 30/04 A2988 RMK A01 T02970039  RH  020%=      5-min Rain = 0
KRRS 132110Z 23008KT 30/04 A2988 RMK A01 T02960038  RH  020%=      5-min Rain = 0
KRRS 132115Z 24008G14KT 30/04 A2988 RMK A01 T02980042  RH  020%=      5-min Rain = 0
KRRS 132120Z 22010G15KT 30/05 A2988 RMK A01 T03000046  RH  020%=      5-min Rain = 0
KRRS 132125Z 22012G18KT 30/04 A2988 RMK A01 T02980041  RH  020%=      5-min Rain = 0
KRRS 132130Z 21011KT 30/04 A2988 RMK A01 T02980040  RH  020%=      5-min Rain = 0
KRRS 132135Z 22011G16KT 30/05 A2988 RMK A01 T02990046  RH  021%=      5-min Rain = 0
KRRS 132140Z 21011KT 30/04 A2988 RMK A01 T02970042  RH  020%=      5-min Rain = 0
KRRS 132145Z 22012G18KT 30/04 A2988 RMK A01 T02960039  RH  020%=      5-min Rain = 0
KRRS 132150Z 21012G17KT 30/04 A2988 RMK A01 T02960044  RH  021%=      5-min Rain = 0
KRRS 132155Z 21011G16KT 30/05 A2988 RMK A01 T02960048  RH  021%=      5-min Rain = 0
KRRS 132200Z 22012KT 30/05 A2988 RMK A01 T02960045  RH  021%=      5-min Rain = 0
KRRS 132205Z 21011G16KT 30/05 A2988 RMK A01 T02950048  RH  021%=      5-min Rain = 0
KRRS 132210Z 22012KT 29/04 A2988 RMK A01 T02940044  RH  021%=      5-min Rain = 0
KRRS 132215Z 22011KT 29/05 A2988 RMK A01 T02930045  RH  021%=      5-min Rain = 0
KRRS 132220Z 22010G16KT 29/05 A2988 RMK A01 T02940051  RH  022%=      5-min Rain = 0
KRRS 132225Z 21012KT 29/05 A2988 RMK A01 T02930047  RH  021%=      5-min Rain = 0
KRRS 132230Z 21011KT 29/05 A2988 RMK A01 T02930049  RH  022%=      5-min Rain = 0
KRRS 132235Z 22008KT 29/05 A2988 RMK A01 T02930052  RH  022%=      5-min Rain = 0
KRRS 132240Z 23010KT 29/05 A2988 RMK A01 T02920048  RH  022%=      5-min Rain = 0
KRRS 132245Z 22011KT 29/05 A2988 RMK A01 T02900046  RH  022%=      5-min Rain = 0
KRRS 132250Z 22011KT 29/04 A2988 RMK A01 T02880044  RH  022%=      5-min Rain = 0
KRRS 132255Z 21010KT 29/05 A2988 RMK A01 T02880046  RH  022%=      5-min Rain = 0
KRRS 132300Z 22009KT 29/05 A2988 RMK A01 T02870046  RH  022%=      5-min Rain = 0
KRRS 132305Z 22008KT 29/05 A2988 RMK A01 T02850049  RH  023%=      5-min Rain = 0
KRRS 132310Z 21007KT 28/06 A2988 RMK A01 T02840055  RH  024%=      5-min Rain = 0
KRRS 132315Z 20008KT 28/06 A2988 RMK A01 T02820055  RH  024%=      5-min Rain = 0
KRRS 132320Z 21008KT 28/06 A2989 RMK A01 T02790056  RH  025%=      5-min Rain = 0
KRRS 132325Z 21008KT 28/06 A2989 RMK A01 T02760057  RH  025%=      5-min Rain = 0
KRRS 132330Z 21008KT 27/06 A2989 RMK A01 T02730061  RH  027%=      5-min Rain = 0
KRRS 132335Z 21007KT 27/06 A2989 RMK A01 T02690064  RH  028%=      5-min Rain = 0
KRRS 132340Z 21006KT 26/07 A2989 RMK A01 T02640065  RH  029%=      5-min Rain = 0
KRRS 132345Z 20006KT 26/07 A2989 RMK A01 T02590065  RH  030%=      5-min Rain = 0
KRRS 132350Z 20005KT 25/07 A2989 RMK A01 T02540065  RH  030%=      5-min Rain = 0
KRRS 132355Z 20006KT 25/06 A2989 RMK A01 T02530063  RH  030%=      5-min Rain = 0
KRRS 140000Z 20006KT 25/06 A2989 RMK A01 T02490062  RH  031%=      5-min Rain = 0
KRRS 140005Z 19007KT 24/06 A2989 RMK A01 T02430063  RH  032%=      5-min Rain = 0
KRRS 140010Z 18008KT 23/07 A299 RMK A01 T02320065  RH  035%=      5-min Rain = 0
KRRS 140015Z 18006KT 23/07 A299 RMK A01 T02270068  RH  037%=      5-min Rain = 0
KRRS 140020Z 18006KT 22/07 A299 RMK A01 T02230066  RH  037%=      5-min Rain = 0
KRRS 140025Z 19004KT 22/07 A299 RMK A01 T02210067  RH  038%=      5-min Rain = 0
KRRS 140030Z 19004KT 22/07 A299 RMK A01 T02210066  RH  038%=      5-min Rain = 0
KRRS 140035Z 19005KT 22/07 A299 RMK A01 T02210067  RH  038%=      5-min Rain = 0
KRRS 140040Z 19006KT 22/07 A299 RMK A01 T02230066  RH  037%=      5-min Rain = 0
KRRS 140045Z 18006KT 22/07 A2991 RMK A01 T02160068  RH  039%=      5-min Rain = 0
KRRS 140050Z 18006KT 21/07 A2991 RMK A01 T02110069  RH  041%=      5-min Rain = 0
KRRS 140055Z 19005KT 21/07 A2991 RMK A01 T02100067  RH  040%=      5-min Rain = 0
KRRS 140100Z 18005KT 21/07 A2991 RMK A01 T02130066  RH  039%=      5-min Rain = 0
KRRS 140105Z 18005KT 21/07 A2991 RMK A01 T02140065  RH  039%=      5-min Rain = 0
KRRS 140110Z 18005KT 21/06 A2991 RMK A01 T02130064  RH  039%=      5-min Rain = 0
KRRS 140115Z 19005KT 21/07 A2992 RMK A01 T02090065  RH  040%=      5-min Rain = 0
KRRS 140120Z 20003KT 20/06 A2992 RMK A01 T02030064  RH  041%=      5-min Rain = 0
KRRS 140125Z 21003KT 20/06 A2992 RMK A01 T02020064  RH  042%=      5-min Rain = 0
KRRS 140130Z 22003KT 20/06 A2992 RMK A01 T01970064  RH  043%=      5-min Rain = 0
KRRS 140135Z 22004KT 19/06 A2992 RMK A01 T01940064  RH  044%=      5-min Rain = 0
KRRS 140140Z 21004KT 20/06 A2992 RMK A01 T01960062  RH  042%=      5-min Rain = 0
KRRS 140145Z 23004KT 20/06 A2993 RMK A01 T01980061  RH  042%=      5-min Rain = 0
KRRS 140150Z 25004KT 19/06 A2993 RMK A01 T01940062  RH  043%=      5-min Rain = 0
KRRS 140155Z 26004KT 19/06 A2993 RMK A01 T01900064  RH  045%=      5-min Rain = 0
KRRS 140200Z 25004KT 19/06 A2993 RMK A01 T01880063  RH  045%=      5-min Rain = 0
KRRS 140205Z 23004KT 19/06 A2993 RMK A01 T01920061  RH  043%=      5-min Rain = 0
KRRS 140210Z 23005KT 19/06 A2993 RMK A01 T01940062  RH  043%=      5-min Rain = 0
KRRS 140215Z 24005KT 19/06 A2993 RMK A01 T01890062  RH  044%=      5-min Rain = 0
KRRS 140220Z 24004KT 19/06 A2993 RMK A01 T01870062  RH  045%=      5-min Rain = 0
KRRS 140225Z 25005KT 19/06 A2993 RMK A01 T01870063  RH  045%=      5-min Rain = 0
KRRS 140230Z 25005KT 18/06 A2993 RMK A01 T01840063  RH  046%=      5-min Rain = 0
KRRS 140235Z 25005KT 18/06 A2994 RMK A01 T01840063  RH  046%=      5-min Rain = 0
KRRS 140240Z 26006KT 18/06 A2994 RMK A01 T01810064  RH  047%=      5-min Rain = 0
KRRS 140245Z 26006KT 18/06 A2994 RMK A01 T01780064  RH  049%=      5-min Rain = 0
KRRS 140250Z 25006KT 18/06 A2993 RMK A01 T01790062  RH  047%=      5-min Rain = 0
KRRS 140255Z 26005KT 18/06 A2993 RMK A01 T01830061  RH  046%=      5-min Rain = 0
KRRS 140300Z 25005KT 18/06 A2993 RMK A01 T01840060  RH  045%=      5-min Rain = 0
KRRS 140305Z 25005KT 18/06 A2994 RMK A01 T01830061  RH  046%=      5-min Rain = 0
KRRS 140310Z 24005KT 18/06 A2994 RMK A01 T01810061  RH  047%=      5-min Rain = 0
KRRS 140315Z 24006KT 18/06 A2994 RMK A01 T01780062  RH  048%=      5-min Rain = 0
KRRS 140320Z 24006KT 18/06 A2994 RMK A01 T01750063  RH  049%=      5-min Rain = 0
KRRS 140325Z 23005KT 18/06 A2994 RMK A01 T01750062  RH  049%=      5-min Rain = 0
KRRS 140330Z 24005KT 18/06 A2994 RMK A01 T01760062  RH  048%=      5-min Rain = 0
KRRS 140335Z 24005KT 17/06 A2994 RMK A01 T01740062  RH  049%=      5-min Rain = 0
KRRS 140340Z 23006KT 18/06 A2994 RMK A01 T01750061  RH  048%=      5-min Rain = 0
KRRS 140345Z 23005KT 18/06 A2994 RMK A01 T01760060  RH  048%=      5-min Rain = 0
KRRS 140350Z 23006KT 18/06 A2994 RMK A01 T01770060  RH  047%=      5-min Rain = 0
KRRS 140355Z 23006KT 17/06 A2994 RMK A01 T01730061  RH  049%=      5-min Rain = 0
KRRS 140400Z 23007KT 17/06 A2994 RMK A01 T01690062  RH  051%=      5-min Rain = 0
KRRS 140405Z 23006KT 17/06 A2994 RMK A01 T01650062  RH  052%=      5-min Rain = 0
KRRS 140410Z 23006KT 17/06 A2994 RMK A01 T01660061  RH  051%=      5-min Rain = 0
KRRS 140415Z 22005KT 17/06 A2994 RMK A01 T01670061  RH  051%=      5-min Rain = 0
KRRS 140420Z 21005KT 16/06 A2994 RMK A01 T01620063  RH  053%=      5-min Rain = 0
KRRS 140425Z 20006KT 16/06 A2995 RMK A01 T01580063  RH  054%=      5-min Rain = 0
KRRS 140430Z 19006KT 15/06 A2995 RMK A01 T01530064  RH  057%=      5-min Rain = 0
KRRS 140435Z 18005KT 16/06 A2995 RMK A01 T01570062  RH  055%=      5-min Rain = 0
KRRS 140440Z 19005KT 16/06 A2994 RMK A01 T01610063  RH  053%=      5-min Rain = 0
KRRS 140445Z 17007KT 15/06 A2994 RMK A01 T01540063  RH  056%=      5-min Rain = 0
KRRS 140450Z 18008KT 15/07 A2994 RMK A01 T01520066  RH  058%=      5-min Rain = 0
KRRS 140455Z 20007KT 15/07 A2994 RMK A01 T01490065  RH  058%=      5-min Rain = 0

Page generated in 0.0232 seconds.